Cambridge, Maine
Current Conditions -  °F | °C
As of 10:15 AM on Wednesday 26 Nov 2014 (Local Time) from KWVL Reporting Station
Few Clouds Few Clouds  
Wind Chill: 31°   Ceiling: Unl
Heat Index: 37°   Visibility: 10mi
Dew Point: 21°   Wind: 8mph
Humidity: 52%   Direction: 10°N
Pressure: 30.18"   Gusts: NA
Location:  45.02°N, 69.47°W
Report Text: KWVL 261515Z 01007KT 10SM FEW110 03/M06 A3018 RMK AO1
Loading
Personal Weather Stations






























Interactive Weather Map New forecast layout! Learn more

10-Day Weather Forecast

Advertisements
Track Severe Weather on mobile